sensor_id;sensor_type;location;lat;lon;timestamp;P1;durP1;ratioP1;P2;durP2;ratioP2
34019;SDS011;20895;51.034;3.742;2023-02-13T00:01:41;40.85;;;30.48;;
34019;SDS011;20895;51.034;3.742;2023-02-13T00:04:07;41.97;;;31.00;;
34019;SDS011;20895;51.034;3.742;2023-02-13T00:06:32;45.70;;;31.73;;
34019;SDS011;20895;51.034;3.742;2023-02-13T00:08:57;43.53;;;31.88;;
34019;SDS011;20895;51.034;3.742;2023-02-13T00:11:23;46.05;;;31.25;;
34019;SDS011;20895;51.034;3.742;2023-02-13T00:13:48;44.60;;;30.67;;
34019;SDS011;20895;51.034;3.742;2023-02-13T00:16:13;44.15;;;32.30;;
34019;SDS011;20895;51.034;3.742;2023-02-13T00:18:38;45.53;;;30.17;;
34019;SDS011;20895;51.034;3.742;2023-02-13T00:21:05;43.78;;;32.13;;
34019;SDS011;20895;51.034;3.742;2023-02-13T00:23:31;43.17;;;31.17;;
34019;SDS011;20895;51.034;3.742;2023-02-13T00:25:57;43.05;;;30.55;;
34019;SDS011;20895;51.034;3.742;2023-02-13T00:28:22;42.53;;;31.50;;
34019;SDS011;20895;51.034;3.742;2023-02-13T00:30:48;42.13;;;31.58;;
34019;SDS011;20895;51.034;3.742;2023-02-13T00:33:13;44.95;;;32.78;;
34019;SDS011;20895;51.034;3.742;2023-02-13T00:35:38;45.10;;;31.83;;
34019;SDS011;20895;51.034;3.742;2023-02-13T00:38:03;45.60;;;31.00;;
34019;SDS011;20895;51.034;3.742;2023-02-13T00:40:29;44.35;;;30.83;;
34019;SDS011;20895;51.034;3.742;2023-02-13T00:42:54;44.10;;;32.40;;
34019;SDS011;20895;51.034;3.742;2023-02-13T00:45:19;44.05;;;31.23;;
34019;SDS011;20895;51.034;3.742;2023-02-13T00:47:44;44.88;;;30.83;;
34019;SDS011;20895;51.034;3.742;2023-02-13T00:50:10;43.75;;;30.15;;
34019;SDS011;20895;51.034;3.742;2023-02-13T00:52:35;45.00;;;31.88;;
34019;SDS011;20895;51.034;3.742;2023-02-13T00:55:00;42.95;;;31.35;;
34019;SDS011;20895;51.034;3.742;2023-02-13T00:57:25;45.92;;;31.67;;
34019;SDS011;20895;51.034;3.742;2023-02-13T00:59:51;45.97;;;31.45;;
34019;SDS011;20895;51.034;3.742;2023-02-13T01:02:16;44.03;;;33.08;;
34019;SDS011;20895;51.034;3.742;2023-02-13T01:04:41;45.33;;;29.88;;
34019;SDS011;20895;51.034;3.742;2023-02-13T01:07:06;43.92;;;30.27;;
34019;SDS011;20895;51.034;3.742;2023-02-13T01:09:32;43.33;;;30.77;;
34019;SDS011;20895;51.034;3.742;2023-02-13T01:11:57;44.00;;;31.30;;
34019;SDS011;20895;51.034;3.742;2023-02-13T01:14:22;43.75;;;30.23;;
34019;SDS011;20895;51.034;3.742;2023-02-13T01:16:48;46.25;;;32.05;;
34019;SDS011;20895;51.034;3.742;2023-02-13T01:19:13;42.97;;;30.70;;
34019;SDS011;20895;51.034;3.742;2023-02-13T01:21:38;43.50;;;30.80;;
34019;SDS011;20895;51.034;3.742;2023-02-13T01:24:04;44.58;;;31.73;;
34019;SDS011;20895;51.034;3.742;2023-02-13T01:26:29;44.03;;;31.20;;
34019;SDS011;20895;51.034;3.742;2023-02-13T01:28:54;46.35;;;28.98;;
34019;SDS011;20895;51.034;3.742;2023-02-13T01:31:22;47.80;;;30.85;;
34019;SDS011;20895;51.034;3.742;2023-02-13T01:33:47;48.53;;;31.95;;
34019;SDS011;20895;51.034;3.742;2023-02-13T01:36:12;42.33;;;30.48;;
34019;SDS011;20895;51.034;3.742;2023-02-13T01:38:38;47.60;;;31.50;;
34019;SDS011;20895;51.034;3.742;2023-02-13T01:41:03;50.65;;;31.48;;
34019;SDS011;20895;51.034;3.742;2023-02-13T01:43:42;49.10;;;30.92;;
34019;SDS011;20895;51.034;3.742;2023-02-13T01:46:07;51.90;;;32.03;;
34019;SDS011;20895;51.034;3.742;2023-02-13T01:48:33;50.65;;;32.05;;
34019;SDS011;20895;51.034;3.742;2023-02-13T01:51:00;49.88;;;32.97;;
34019;SDS011;20895;51.034;3.742;2023-02-13T01:53:31;47.88;;;31.13;;
34019;SDS011;20895;51.034;3.742;2023-02-13T01:58:23;49.85;;;30.75;;
34019;SDS011;20895;51.034;3.742;2023-02-13T02:00:49;54.20;;;34.75;;
34019;SDS011;20895;51.034;3.742;2023-02-13T02:03:25;49.10;;;31.85;;
34019;SDS011;20895;51.034;3.742;2023-02-13T02:05:52;52.25;;;31.73;;
34019;SDS011;20895;51.034;3.742;2023-02-13T02:08:19;53.13;;;32.38;;
34019;SDS011;20895;51.034;3.742;2023-02-13T02:10:44;51.25;;;32.88;;
34019;SDS011;20895;51.034;3.742;2023-02-13T02:13:10;52.13;;;31.00;;
34019;SDS011;20895;51.034;3.742;2023-02-13T02:15:36;53.60;;;34.60;;
34019;SDS011;20895;51.034;3.742;2023-02-13T02:18:01;50.10;;;33.10;;
34019;SDS011;20895;51.034;3.742;2023-02-13T02:28:17;59.83;;;33.50;;
34019;SDS011;20895;51.034;3.742;2023-02-13T02:33:22;55.00;;;34.72;;
34019;SDS011;20895;51.034;3.742;2023-02-13T02:36:38;53.78;;;32.17;;
34019;SDS011;20895;51.034;3.742;2023-02-13T02:38:39;59.38;;;35.38;;
34019;SDS011;20895;51.034;3.742;2023-02-13T02:46:21;52.50;;;34.55;;
34019;SDS011;20895;51.034;3.742;2023-02-13T02:54:02;58.70;;;34.53;;
34019;SDS011;20895;51.034;3.742;2023-02-13T02:56:51;58.20;;;34.50;;
34019;SDS011;20895;51.034;3.742;2023-02-13T02:59:18;60.35;;;39.72;;
34019;SDS011;20895;51.034;3.742;2023-02-13T03:02:03;60.97;;;36.67;;
34019;SDS011;20895;51.034;3.742;2023-02-13T03:04:51;60.45;;;35.90;;
34019;SDS011;20895;51.034;3.742;2023-02-13T03:07:36;59.22;;;35.38;;
34019;SDS011;20895;51.034;3.742;2023-02-13T03:10:06;60.50;;;35.92;;
34019;SDS011;20895;51.034;3.742;2023-02-13T03:12:53;57.25;;;34.78;;
34019;SDS011;20895;51.034;3.742;2023-02-13T03:15:46;57.35;;;35.35;;
34019;SDS011;20895;51.034;3.742;2023-02-13T03:18:32;65.65;;;38.05;;
34019;SDS011;20895;51.034;3.742;2023-02-13T03:21:25;61.67;;;34.67;;
34019;SDS011;20895;51.034;3.742;2023-02-13T03:32:31;63.45;;;36.47;;
34019;SDS011;20895;51.034;3.742;2023-02-13T03:35:03;60.00;;;36.28;;
34019;SDS011;20895;51.034;3.742;2023-02-13T03:37:50;69.25;;;37.47;;
34019;SDS011;20895;51.034;3.742;2023-02-13T03:40:27;64.47;;;36.95;;
34019;SDS011;20895;51.034;3.742;2023-02-13T03:42:58;65.80;;;38.38;;
34019;SDS011;20895;51.034;3.742;2023-02-13T03:45:31;63.55;;;36.20;;
34019;SDS011;20895;51.034;3.742;2023-02-13T03:48:17;63.65;;;36.08;;
34019;SDS011;20895;51.034;3.742;2023-02-13T03:51:02;63.58;;;37.33;;
34019;SDS011;20895;51.034;3.742;2023-02-13T03:53:28;65.32;;;38.50;;
34019;SDS011;20895;51.034;3.742;2023-02-13T03:55:55;58.33;;;35.47;;
34019;SDS011;20895;51.034;3.742;2023-02-13T03:58:40;63.97;;;36.83;;
34019;SDS011;20895;51.034;3.742;2023-02-13T04:01:26;66.47;;;36.88;;
34019;SDS011;20895;51.034;3.742;2023-02-13T04:04:28;68.75;;;38.33;;
34019;SDS011;20895;51.034;3.742;2023-02-13T04:09:12;68.90;;;39.25;;
34019;SDS011;20895;51.034;3.742;2023-02-13T04:14:26;64.65;;;36.67;;
34019;SDS011;20895;51.034;3.742;2023-02-13T04:17:36;68.13;;;39.40;;
34019;SDS011;20895;51.034;3.742;2023-02-13T04:19:42;70.30;;;39.17;;
34019;SDS011;20895;51.034;3.742;2023-02-13T04:22:07;71.78;;;40.20;;
34019;SDS011;20895;51.034;3.742;2023-02-13T04:24:35;71.28;;;40.30;;
34019;SDS011;20895;51.034;3.742;2023-02-13T04:27:01;69.47;;;39.00;;
34019;SDS011;20895;51.034;3.742;2023-02-13T04:29:26;72.60;;;40.30;;
34019;SDS011;20895;51.034;3.742;2023-02-13T04:31:51;70.30;;;37.83;;
34019;SDS011;20895;51.034;3.742;2023-02-13T04:34:17;66.32;;;40.47;;
34019;SDS011;20895;51.034;3.742;2023-02-13T04:36:42;66.40;;;39.00;;
34019;SDS011;20895;51.034;3.742;2023-02-13T04:39:07;66.53;;;39.67;;
34019;SDS011;20895;51.034;3.742;2023-02-13T04:41:32;68.05;;;38.85;;
34019;SDS011;20895;51.034;3.742;2023-02-13T04:43:58;63.95;;;36.70;;
34019;SDS011;20895;51.034;3.742;2023-02-13T04:46:23;70.78;;;40.53;;
34019;SDS011;20895;51.034;3.742;2023-02-13T04:48:48;63.45;;;37.50;;
34019;SDS011;20895;51.034;3.742;2023-02-13T04:51:14;68.18;;;40.20;;
34019;SDS011;20895;51.034;3.742;2023-02-13T04:53:39;71.43;;;39.40;;
34019;SDS011;20895;51.034;3.742;2023-02-13T04:56:04;69.25;;;38.35;;
34019;SDS011;20895;51.034;3.742;2023-02-13T04:58:29;70.82;;;40.40;;
34019;SDS011;20895;51.034;3.742;2023-02-13T05:00:55;67.18;;;39.05;;
34019;SDS011;20895;51.034;3.742;2023-02-13T05:03:20;67.47;;;39.95;;
34019;SDS011;20895;51.034;3.742;2023-02-13T05:05:45;69.18;;;38.33;;
34019;SDS011;20895;51.034;3.742;2023-02-13T05:08:12;73.45;;;39.10;;
34019;SDS011;20895;51.034;3.742;2023-02-13T05:10:37;72.38;;;37.15;;
34019;SDS011;20895;51.034;3.742;2023-02-13T05:13:02;71.03;;;38.22;;
34019;SDS011;20895;51.034;3.742;2023-02-13T05:15:27;69.38;;;39.20;;
34019;SDS011;20895;51.034;3.742;2023-02-13T05:17:53;70.47;;;38.70;;
34019;SDS011;20895;51.034;3.742;2023-02-13T05:20:18;70.03;;;39.88;;
34019;SDS011;20895;51.034;3.742;2023-02-13T05:22:44;71.57;;;40.63;;
34019;SDS011;20895;51.034;3.742;2023-02-13T05:25:28;71.18;;;39.83;;
34019;SDS011;20895;51.034;3.742;2023-02-13T05:27:53;68.80;;;39.65;;
34019;SDS011;20895;51.034;3.742;2023-02-13T05:30:18;69.93;;;39.40;;
34019;SDS011;20895;51.034;3.742;2023-02-13T05:32:44;74.13;;;40.45;;
34019;SDS011;20895;51.034;3.742;2023-02-13T05:35:09;74.93;;;39.67;;
34019;SDS011;20895;51.034;3.742;2023-02-13T05:37:35;78.18;;;40.95;;
34019;SDS011;20895;51.034;3.742;2023-02-13T05:40:00;77.95;;;42.35;;
34019;SDS011;20895;51.034;3.742;2023-02-13T05:42:25;79.63;;;43.03;;
34019;SDS011;20895;51.034;3.742;2023-02-13T05:44:50;76.18;;;40.75;;
34019;SDS011;20895;51.034;3.742;2023-02-13T05:47:16;78.82;;;41.35;;
34019;SDS011;20895;51.034;3.742;2023-02-13T05:49:41;77.15;;;41.50;;
34019;SDS011;20895;51.034;3.742;2023-02-13T05:52:06;84.05;;;42.40;;
34019;SDS011;20895;51.034;3.742;2023-02-13T05:54:31;106.65;;;42.05;;
34019;SDS011;20895;51.034;3.742;2023-02-13T05:56:56;116.95;;;43.80;;
34019;SDS011;20895;51.034;3.742;2023-02-13T05:59:22;166.43;;;42.60;;
34019;SDS011;20895;51.034;3.742;2023-02-13T06:01:47;308.58;;;46.83;;
34019;SDS011;20895;51.034;3.742;2023-02-13T06:04:12;190.85;;;43.80;;
34019;SDS011;20895;51.034;3.742;2023-02-13T06:06:38;142.23;;;41.53;;
34019;SDS011;20895;51.034;3.742;2023-02-13T06:09:03;300.15;;;46.55;;
34019;SDS011;20895;51.034;3.742;2023-02-13T06:11:28;202.55;;;43.75;;
34019;SDS011;20895;51.034;3.742;2023-02-13T06:13:53;230.38;;;42.83;;
34019;SDS011;20895;51.034;3.742;2023-02-13T06:16:19;184.60;;;41.33;;
34019;SDS011;20895;51.034;3.742;2023-02-13T06:18:44;225.93;;;43.70;;
34019;SDS011;20895;51.034;3.742;2023-02-13T06:21:09;185.40;;;42.75;;
34019;SDS011;20895;51.034;3.742;2023-02-13T06:23:34;172.77;;;41.22;;
34019;SDS011;20895;51.034;3.742;2023-02-13T06:26:00;265.30;;;40.63;;
34019;SDS011;20895;51.034;3.742;2023-02-13T06:28:26;215.00;;;36.47;;
34019;SDS011;20895;51.034;3.742;2023-02-13T06:30:51;199.57;;;34.95;;
34019;SDS011;20895;51.034;3.742;2023-02-13T06:33:16;141.77;;;34.08;;
34019;SDS011;20895;51.034;3.742;2023-02-13T06:35:42;158.45;;;35.22;;
34019;SDS011;20895;51.034;3.742;2023-02-13T06:38:07;126.03;;;34.85;;
34019;SDS011;20895;51.034;3.742;2023-02-13T06:40:32;157.02;;;36.45;;
34019;SDS011;20895;51.034;3.742;2023-02-13T06:42:57;135.20;;;43.20;;
34019;SDS011;20895;51.034;3.742;2023-02-13T06:45:23;128.52;;;38.97;;
34019;SDS011;20895;51.034;3.742;2023-02-13T06:47:48;157.98;;;43.80;;
34019;SDS011;20895;51.034;3.742;2023-02-13T06:50:14;114.55;;;36.53;;
34019;SDS011;20895;51.034;3.742;2023-02-13T06:52:47;148.43;;;34.92;;
34019;SDS011;20895;51.034;3.742;2023-02-13T06:55:12;149.30;;;37.72;;
34019;SDS011;20895;51.034;3.742;2023-02-13T06:57:38;122.40;;;36.13;;
34019;SDS011;20895;51.034;3.742;2023-02-13T07:00:03;86.82;;;31.35;;
34019;SDS011;20895;51.034;3.742;2023-02-13T07:02:30;71.47;;;29.20;;
34019;SDS011;20895;51.034;3.742;2023-02-13T07:04:56;72.13;;;27.38;;
34019;SDS011;20895;51.034;3.742;2023-02-13T07:07:21;100.32;;;29.15;;
34019;SDS011;20895;51.034;3.742;2023-02-13T07:09:46;66.93;;;30.45;;
34019;SDS011;20895;51.034;3.742;2023-02-13T07:12:12;65.30;;;31.60;;
34019;SDS011;20895;51.034;3.742;2023-02-13T07:14:37;62.67;;;28.73;;
34019;SDS011;20895;51.034;3.742;2023-02-13T07:17:02;59.92;;;30.30;;
34019;SDS011;20895;51.034;3.742;2023-02-13T07:19:29;58.85;;;30.70;;
34019;SDS011;20895;51.034;3.742;2023-02-13T07:21:54;51.83;;;28.30;;
34019;SDS011;20895;51.034;3.742;2023-02-13T07:24:19;52.83;;;28.40;;
34019;SDS011;20895;51.034;3.742;2023-02-13T07:26:45;57.92;;;30.13;;
34019;SDS011;20895;51.034;3.742;2023-02-13T07:29:10;61.22;;;29.58;;
34019;SDS011;20895;51.034;3.742;2023-02-13T07:31:35;45.70;;;26.60;;
34019;SDS011;20895;51.034;3.742;2023-02-13T07:34:00;46.03;;;24.33;;
34019;SDS011;20895;51.034;3.742;2023-02-13T07:36:26;46.60;;;26.08;;
34019;SDS011;20895;51.034;3.742;2023-02-13T07:38:51;52.05;;;27.00;;
34019;SDS011;20895;51.034;3.742;2023-02-13T07:41:17;51.70;;;27.23;;
34019;SDS011;20895;51.034;3.742;2023-02-13T07:43:42;49.75;;;28.55;;
34019;SDS011;20895;51.034;3.742;2023-02-13T07:46:07;44.00;;;27.20;;
34019;SDS011;20895;51.034;3.742;2023-02-13T07:48:33;44.95;;;25.63;;
34019;SDS011;20895;51.034;3.742;2023-02-13T07:50:58;46.25;;;26.13;;
34019;SDS011;20895;51.034;3.742;2023-02-13T07:53:24;45.28;;;25.60;;
34019;SDS011;20895;51.034;3.742;2023-02-13T07:55:49;37.58;;;25.08;;
34019;SDS011;20895;51.034;3.742;2023-02-13T07:58:14;44.38;;;26.13;;
34019;SDS011;20895;51.034;3.742;2023-02-13T08:00:40;38.60;;;26.15;;
34019;SDS011;20895;51.034;3.742;2023-02-13T08:03:05;33.17;;;24.98;;
34019;SDS011;20895;51.034;3.742;2023-02-13T08:05:30;37.05;;;23.52;;
34019;SDS011;20895;51.034;3.742;2023-02-13T08:07:56;34.40;;;22.23;;
34019;SDS011;20895;51.034;3.742;2023-02-13T08:10:21;32.63;;;22.88;;
34019;SDS011;20895;51.034;3.742;2023-02-13T08:13:06;32.90;;;22.38;;
34019;SDS011;20895;51.034;3.742;2023-02-13T08:15:31;33.67;;;23.70;;
34019;SDS011;20895;51.034;3.742;2023-02-13T08:17:57;31.48;;;21.02;;
34019;SDS011;20895;51.034;3.742;2023-02-13T08:20:22;29.95;;;21.85;;
34019;SDS011;20895;51.034;3.742;2023-02-13T08:22:50;30.17;;;22.40;;
34019;SDS011;20895;51.034;3.742;2023-02-13T08:25:16;32.42;;;22.20;;
34019;SDS011;20895;51.034;3.742;2023-02-13T08:27:41;32.75;;;22.05;;
34019;SDS011;20895;51.034;3.742;2023-02-13T08:30:07;30.83;;;22.33;;
34019;SDS011;20895;51.034;3.742;2023-02-13T08:32:32;29.33;;;21.10;;
34019;SDS011;20895;51.034;3.742;2023-02-13T08:34:58;30.60;;;21.50;;
34019;SDS011;20895;51.034;3.742;2023-02-13T08:37:23;30.45;;;22.60;;
34019;SDS011;20895;51.034;3.742;2023-02-13T08:39:48;29.85;;;21.25;;
34019;SDS011;20895;51.034;3.742;2023-02-13T08:42:13;29.25;;;20.83;;
34019;SDS011;20895;51.034;3.742;2023-02-13T08:44:39;28.33;;;20.98;;
34019;SDS011;20895;51.034;3.742;2023-02-13T08:47:06;28.92;;;21.15;;
34019;SDS011;20895;51.034;3.742;2023-02-13T08:49:32;27.20;;;20.50;;
34019;SDS011;20895;51.034;3.742;2023-02-13T08:51:58;28.60;;;20.08;;
34019;SDS011;20895;51.034;3.742;2023-02-13T08:54:23;27.65;;;20.50;;
34019;SDS011;20895;51.034;3.742;2023-02-13T08:56:49;28.58;;;21.35;;
34019;SDS011;20895;51.034;3.742;2023-02-13T08:59:14;29.55;;;21.23;;
34019;SDS011;20895;51.034;3.742;2023-02-13T09:01:39;28.83;;;21.25;;
34019;SDS011;20895;51.034;3.742;2023-02-13T09:04:05;28.35;;;20.73;;
34019;SDS011;20895;51.034;3.742;2023-02-13T09:06:30;27.50;;;19.02;;
34019;SDS011;20895;51.034;3.742;2023-02-13T09:08:55;25.52;;;18.95;;
34019;SDS011;20895;51.034;3.742;2023-02-13T09:11:21;32.17;;;20.73;;
34019;SDS011;20895;51.034;3.742;2023-02-13T09:13:47;29.35;;;20.00;;
34019;SDS011;20895;51.034;3.742;2023-02-13T09:16:13;29.33;;;20.00;;
34019;SDS011;20895;51.034;3.742;2023-02-13T09:18:38;30.38;;;20.85;;
34019;SDS011;20895;51.034;3.742;2023-02-13T09:21:04;28.63;;;19.67;;
34019;SDS011;20895;51.034;3.742;2023-02-13T09:23:31;31.88;;;20.27;;
34019;SDS011;20895;51.034;3.742;2023-02-13T09:26:03;26.25;;;19.00;;
34019;SDS011;20895;51.034;3.742;2023-02-13T09:28:29;26.67;;;19.90;;
34019;SDS011;20895;51.034;3.742;2023-02-13T09:30:55;23.63;;;18.65;;
34019;SDS011;20895;51.034;3.742;2023-02-13T09:33:20;33.40;;;21.40;;
34019;SDS011;20895;51.034;3.742;2023-02-13T09:35:45;28.10;;;19.05;;
34019;SDS011;20895;51.034;3.742;2023-02-13T09:38:10;31.05;;;20.80;;
34019;SDS011;20895;51.034;3.742;2023-02-13T09:40:41;28.65;;;19.80;;
34019;SDS011;20895;51.034;3.742;2023-02-13T09:43:12;27.25;;;19.42;;
34019;SDS011;20895;51.034;3.742;2023-02-13T09:45:38;27.02;;;19.42;;
34019;SDS011;20895;51.034;3.742;2023-02-13T09:48:04;27.23;;;19.02;;
34019;SDS011;20895;51.034;3.742;2023-02-13T09:50:30;27.77;;;19.60;;
34019;SDS011;20895;51.034;3.742;2023-02-13T09:52:57;28.35;;;19.13;;
34019;SDS011;20895;51.034;3.742;2023-02-13T09:55:26;30.25;;;19.23;;
34019;SDS011;20895;51.034;3.742;2023-02-13T10:00:20;28.15;;;20.25;;
34019;SDS011;20895;51.034;3.742;2023-02-13T10:10:31;27.38;;;19.10;;
34019;SDS011;20895;51.034;3.742;2023-02-13T10:13:04;31.92;;;18.85;;
34019;SDS011;20895;51.034;3.742;2023-02-13T10:18:16;26.90;;;20.02;;
34019;SDS011;20895;51.034;3.742;2023-02-13T10:20:53;28.30;;;20.15;;
34019;SDS011;20895;51.034;3.742;2023-02-13T10:23:27;28.40;;;19.73;;
34019;SDS011;20895;51.034;3.742;2023-02-13T10:26:01;26.15;;;18.83;;
34019;SDS011;20895;51.034;3.742;2023-02-13T10:30:53;26.25;;;16.83;;
34019;SDS011;20895;51.034;3.742;2023-02-13T10:33:24;25.45;;;17.38;;
34019;SDS011;20895;51.034;3.742;2023-02-13T10:38:37;28.63;;;16.73;;
34019;SDS011;20895;51.034;3.742;2023-02-13T10:41:14;22.70;;;16.05;;
34019;SDS011;20895;51.034;3.742;2023-02-13T10:43:51;24.27;;;15.93;;
34019;SDS011;20895;51.034;3.742;2023-02-13T10:46:25;25.38;;;17.08;;
34019;SDS011;20895;51.034;3.742;2023-02-13T10:51:37;20.83;;;16.95;;
34019;SDS011;20895;51.034;3.742;2023-02-13T11:01:47;24.73;;;17.55;;
34019;SDS011;20895;51.034;3.742;2023-02-13T11:04:16;28.55;;;18.85;;
34019;SDS011;20895;51.034;3.742;2023-02-13T11:06:42;25.48;;;17.00;;
34019;SDS011;20895;51.034;3.742;2023-02-13T11:09:10;24.10;;;17.05;;
34019;SDS011;20895;51.034;3.742;2023-02-13T11:11:38;22.50;;;16.17;;
34019;SDS011;20895;51.034;3.742;2023-02-13T11:14:08;24.67;;;16.35;;
34019;SDS011;20895;51.034;3.742;2023-02-13T11:16:53;30.90;;;18.40;;
34019;SDS011;20895;51.034;3.742;2023-02-13T11:19:21;26.75;;;16.35;;
34019;SDS011;20895;51.034;3.742;2023-02-13T11:21:47;24.00;;;16.70;;
34019;SDS011;20895;51.034;3.742;2023-02-13T11:24:18;23.67;;;17.38;;
34019;SDS011;20895;51.034;3.742;2023-02-13T11:26:48;26.23;;;15.45;;
34019;SDS011;20895;51.034;3.742;2023-02-13T11:29:19;26.08;;;17.15;;
34019;SDS011;20895;51.034;3.742;2023-02-13T11:31:46;30.45;;;17.90;;
34019;SDS011;20895;51.034;3.742;2023-02-13T11:34:25;28.13;;;16.40;;
34019;SDS011;20895;51.034;3.742;2023-02-13T11:36:52;27.35;;;17.30;;
34019;SDS011;20895;51.034;3.742;2023-02-13T11:39:21;27.45;;;16.60;;
34019;SDS011;20895;51.034;3.742;2023-02-13T11:41:47;25.63;;;17.35;;
34019;SDS011;20895;51.034;3.742;2023-02-13T11:44:19;27.42;;;16.95;;
34019;SDS011;20895;51.034;3.742;2023-02-13T11:46:46;23.40;;;16.08;;
34019;SDS011;20895;51.034;3.742;2023-02-13T11:49:14;24.48;;;16.58;;
34019;SDS011;20895;51.034;3.742;2023-02-13T11:51:42;25.25;;;16.02;;
34019;SDS011;20895;51.034;3.742;2023-02-13T11:56:49;32.38;;;16.90;;
34019;SDS011;20895;51.034;3.742;2023-02-13T11:59:15;22.10;;;16.80;;
34019;SDS011;20895;51.034;3.742;2023-02-13T12:01:40;40.22;;;18.33;;
34019;SDS011;20895;51.034;3.742;2023-02-13T12:09:12;37.67;;;16.88;;
34019;SDS011;20895;51.034;3.742;2023-02-13T12:14:04;26.90;;;16.40;;
34019;SDS011;20895;51.034;3.742;2023-02-13T12:16:31;20.40;;;14.35;;
34019;SDS011;20895;51.034;3.742;2023-02-13T12:18:59;21.90;;;16.02;;
34019;SDS011;20895;51.034;3.742;2023-02-13T12:24:47;26.50;;;17.65;;
34019;SDS011;20895;51.034;3.742;2023-02-13T12:27:08;28.48;;;16.08;;
34019;SDS011;20895;51.034;3.742;2023-02-13T12:29:42;17.05;;;13.75;;
34019;SDS011;20895;51.034;3.742;2023-02-13T12:32:26;50.28;;;16.90;;
34019;SDS011;20895;51.034;3.742;2023-02-13T12:39:53;23.60;;;14.98;;
34019;SDS011;20895;51.034;3.742;2023-02-13T12:42:37;20.88;;;15.65;;
34019;SDS011;20895;51.034;3.742;2023-02-13T12:45:10;21.40;;;13.70;;
34019;SDS011;20895;51.034;3.742;2023-02-13T12:50:27;19.30;;;15.27;;
34019;SDS011;20895;51.034;3.742;2023-02-13T13:03:22;18.88;;;14.38;;
34019;SDS011;20895;51.034;3.742;2023-02-13T13:08:21;20.23;;;13.85;;
34019;SDS011;20895;51.034;3.742;2023-02-13T13:21:25;20.13;;;14.43;;
34019;SDS011;20895;51.034;3.742;2023-02-13T13:23:45;21.17;;;14.18;;
34019;SDS011;20895;51.034;3.742;2023-02-13T13:28:46;23.98;;;14.60;;
34019;SDS011;20895;51.034;3.742;2023-02-13T13:31:12;17.65;;;13.95;;
34019;SDS011;20895;51.034;3.742;2023-02-13T13:33:39;20.70;;;14.20;;
34019;SDS011;20895;51.034;3.742;2023-02-13T13:38:57;16.75;;;13.50;;
34019;SDS011;20895;51.034;3.742;2023-02-13T13:51:15;19.90;;;13.73;;
34019;SDS011;20895;51.034;3.742;2023-02-13T13:58:49;19.15;;;14.50;;
34019;SDS011;20895;51.034;3.742;2023-02-13T14:01:28;18.50;;;13.85;;
34019;SDS011;20895;51.034;3.742;2023-02-13T14:06:20;20.37;;;16.13;;
34019;SDS011;20895;51.034;3.742;2023-02-13T14:13:51;19.63;;;14.88;;
34019;SDS011;20895;51.034;3.742;2023-02-13T14:19:00;20.30;;;13.98;;
34019;SDS011;20895;51.034;3.742;2023-02-13T14:21:26;19.83;;;15.50;;
34019;SDS011;20895;51.034;3.742;2023-02-13T14:23:52;44.28;;;17.08;;
34019;SDS011;20895;51.034;3.742;2023-02-13T14:26:18;20.98;;;15.40;;
34019;SDS011;20895;51.034;3.742;2023-02-13T14:33:52;30.67;;;16.77;;
34019;SDS011;20895;51.034;3.742;2023-02-13T14:36:22;21.80;;;16.88;;
34019;SDS011;20895;51.034;3.742;2023-02-13T14:39:06;22.63;;;17.08;;
34019;SDS011;20895;51.034;3.742;2023-02-13T14:41:42;22.88;;;15.65;;
34019;SDS011;20895;51.034;3.742;2023-02-13T14:47:04;24.67;;;17.08;;
34019;SDS011;20895;51.034;3.742;2023-02-13T14:49:31;21.83;;;16.73;;
34019;SDS011;20895;51.034;3.742;2023-02-13T14:52:02;19.90;;;14.32;;
34019;SDS011;20895;51.034;3.742;2023-02-13T14:57:03;25.50;;;15.32;;
34019;SDS011;20895;51.034;3.742;2023-02-13T14:59:30;22.05;;;15.07;;
34019;SDS011;20895;51.034;3.742;2023-02-13T15:02:03;22.60;;;15.68;;
34019;SDS011;20895;51.034;3.742;2023-02-13T15:04:40;36.78;;;18.20;;
34019;SDS011;20895;51.034;3.742;2023-02-13T15:07:06;21.33;;;15.38;;
34019;SDS011;20895;51.034;3.742;2023-02-13T15:09:38;24.52;;;14.98;;
34019;SDS011;20895;51.034;3.742;2023-02-13T15:12:22;20.67;;;15.60;;
34019;SDS011;20895;51.034;3.742;2023-02-13T15:14:48;20.65;;;15.48;;
34019;SDS011;20895;51.034;3.742;2023-02-13T15:17:46;20.67;;;15.18;;
34019;SDS011;20895;51.034;3.742;2023-02-13T15:20:17;42.78;;;15.90;;
34019;SDS011;20895;51.034;3.742;2023-02-13T15:22:46;22.80;;;15.45;;
34019;SDS011;20895;51.034;3.742;2023-02-13T15:25:24;19.08;;;14.15;;
34019;SDS011;20895;51.034;3.742;2023-02-13T15:27:53;30.85;;;15.38;;
34019;SDS011;20895;51.034;3.742;2023-02-13T15:30:21;23.02;;;14.60;;
34019;SDS011;20895;51.034;3.742;2023-02-13T15:32:57;22.45;;;15.57;;
34019;SDS011;20895;51.034;3.742;2023-02-13T15:38:22;20.90;;;15.50;;
34019;SDS011;20895;51.034;3.742;2023-02-13T15:40:48;20.73;;;15.65;;
34019;SDS011;20895;51.034;3.742;2023-02-13T15:43:18;26.15;;;15.98;;
34019;SDS011;20895;51.034;3.742;2023-02-13T15:45:46;22.73;;;15.27;;
34019;SDS011;20895;51.034;3.742;2023-02-13T15:48:13;32.28;;;16.17;;
34019;SDS011;20895;51.034;3.742;2023-02-13T15:50:40;21.08;;;14.10;;
34019;SDS011;20895;51.034;3.742;2023-02-13T15:53:09;22.80;;;15.55;;
34019;SDS011;20895;51.034;3.742;2023-02-13T15:55:36;25.20;;;15.38;;
34019;SDS011;20895;51.034;3.742;2023-02-13T15:58:02;21.63;;;16.67;;
34019;SDS011;20895;51.034;3.742;2023-02-13T16:00:29;22.15;;;15.32;;
34019;SDS011;20895;51.034;3.742;2023-02-13T16:02:55;23.08;;;15.15;;
34019;SDS011;20895;51.034;3.742;2023-02-13T16:05:21;19.65;;;16.08;;
34019;SDS011;20895;51.034;3.742;2023-02-13T16:07:57;22.90;;;15.38;;
34019;SDS011;20895;51.034;3.742;2023-02-13T16:10:30;20.60;;;15.25;;
34019;SDS011;20895;51.034;3.742;2023-02-13T16:13:00;20.30;;;15.45;;
34019;SDS011;20895;51.034;3.742;2023-02-13T16:15:27;25.58;;;16.40;;
34019;SDS011;20895;51.034;3.742;2023-02-13T16:17:53;23.38;;;15.60;;
34019;SDS011;20895;51.034;3.742;2023-02-13T16:20:23;31.15;;;16.83;;
34019;SDS011;20895;51.034;3.742;2023-02-13T16:22:50;23.58;;;16.67;;
34019;SDS011;20895;51.034;3.742;2023-02-13T16:40:51;30.92;;;16.63;;
34019;SDS011;20895;51.034;3.742;2023-02-13T16:43:32;38.47;;;16.33;;
34019;SDS011;20895;51.034;3.742;2023-02-13T16:53:54;37.05;;;17.60;;
34019;SDS011;20895;51.034;3.742;2023-02-13T16:56:20;62.25;;;20.10;;
34019;SDS011;20895;51.034;3.742;2023-02-13T16:58:45;36.63;;;17.63;;
34019;SDS011;20895;51.034;3.742;2023-02-13T17:01:12;34.08;;;17.05;;
34019;SDS011;20895;51.034;3.742;2023-02-13T17:03:39;45.95;;;22.13;;
34019;SDS011;20895;51.034;3.742;2023-02-13T17:06:04;41.00;;;18.63;;
34019;SDS011;20895;51.034;3.742;2023-02-13T17:08:30;31.33;;;18.02;;
34019;SDS011;20895;51.034;3.742;2023-02-13T17:11:03;26.60;;;17.98;;
34019;SDS011;20895;51.034;3.742;2023-02-13T17:13:28;33.67;;;20.23;;
34019;SDS011;20895;51.034;3.742;2023-02-13T17:15:53;28.77;;;17.77;;
34019;SDS011;20895;51.034;3.742;2023-02-13T17:18:19;27.42;;;17.98;;
34019;SDS011;20895;51.034;3.742;2023-02-13T17:20:45;35.72;;;18.25;;
34019;SDS011;20895;51.034;3.742;2023-02-13T17:23:14;41.30;;;20.00;;
34019;SDS011;20895;51.034;3.742;2023-02-13T17:25:41;29.92;;;18.58;;